createdAt,value
2018-02-24T00:01:11.421Z,94553.72
2018-02-24T00:02:49.110Z,94590.00
2018-02-24T00:04:26.685Z,94593.82
2018-02-24T00:06:04.889Z,94447.08
2018-02-24T00:07:42.812Z,94433.81
2018-02-24T00:09:21.741Z,94530.55
2018-02-24T00:11:00.222Z,94597.61
2018-02-24T00:12:37.833Z,94621.58
2018-02-24T00:14:15.707Z,94629.98
2018-02-24T00:15:53.753Z,94600.17
2018-02-24T00:17:31.835Z,94575.09
2018-02-24T00:19:09.405Z,94527.27
2018-02-24T00:20:47.600Z,94507.25
2018-02-24T00:22:26.020Z,94552.00
2018-02-24T00:24:04.717Z,94489.66
2018-02-24T00:25:51.814Z,94507.30
2018-02-24T00:27:31.571Z,94639.36
2018-02-24T00:29:11.141Z,94508.76
2018-02-24T00:30:50.199Z,94490.46
2018-02-24T00:32:34.516Z,94504.48
2018-02-24T00:34:17.792Z,94550.62
2018-02-24T00:35:57.395Z,94592.47
2018-02-24T00:37:39.120Z,94544.64
2018-02-24T00:39:21.165Z,94659.86
2018-02-24T00:41:01.015Z,94717.55
2018-02-24T00:49:09.591Z,94656.95
2018-02-24T00:50:48.988Z,94477.28
2018-02-24T00:52:27.764Z,94466.54
2018-02-24T00:54:05.445Z,94527.98
2018-02-24T00:55:44.411Z,94669.69
2018-02-24T00:57:23.596Z,94733.31
2018-02-24T01:05:30.952Z,94621.05
2018-02-24T01:07:09.874Z,94641.55
2018-02-24T01:08:48.596Z,94650.44
2018-02-24T01:10:27.504Z,94721.80
2018-02-24T01:12:07.105Z,94803.36
2018-02-24T01:13:45.853Z,94789.66
2018-02-24T01:15:25.424Z,94795.67
2018-02-24T01:17:04.948Z,94914.42
2018-02-24T01:18:43.383Z,94920.45
2018-02-24T01:20:22.691Z,94905.50
2018-02-24T01:22:02.172Z,94849.13
2018-02-24T01:23:40.398Z,94717.47
2018-02-24T01:25:18.890Z,94695.32
2018-02-24T01:26:57.495Z,94689.36
2018-02-24T01:28:35.917Z,94737.64
2018-02-24T01:30:15.964Z,94876.85
2018-02-24T01:31:54.513Z,94972.09
2018-02-24T01:33:33.166Z,94979.80
2018-02-24T01:35:12.275Z,94974.23
2018-02-24T01:36:51.796Z,94873.86
2018-02-24T01:38:29.986Z,94707.72
2018-02-24T01:40:09.309Z,94688.34
2018-02-24T01:41:47.726Z,94683.81
2018-02-24T01:43:27.846Z,94678.14
2018-02-24T01:45:07.680Z,94729.83
2018-02-24T01:46:47.299Z,94916.53
2018-02-24T01:48:26.057Z,95064.83
2018-02-24T01:50:05.458Z,95070.77
2018-02-24T01:51:44.061Z,94984.47
2018-02-24T01:53:22.176Z,94947.30
2018-02-24T01:55:01.329Z,94921.28
2018-02-24T01:56:40.780Z,94773.30
2018-02-24T01:58:19.082Z,94663.72
2018-02-24T01:59:57.387Z,94637.38
2018-02-24T02:01:36.894Z,94658.17
2018-02-24T02:03:16.238Z,94832.00
2018-02-24T02:04:54.566Z,94801.26
2018-02-24T02:06:33.455Z,94780.70
2018-02-24T02:08:11.633Z,94750.80
2018-02-24T02:09:50.386Z,94765.23
2018-02-24T02:11:29.444Z,94655.19
2018-02-24T02:13:08.548Z,94707.26
2018-02-24T02:14:47.734Z,94726.84
2018-02-24T02:16:26.777Z,94765.69
2018-02-24T02:18:06.899Z,94751.19
2018-02-24T02:19:44.978Z,94785.70
2018-02-24T02:21:24.373Z,94742.69
2018-02-24T02:23:02.456Z,94752.02
2018-02-24T02:24:40.692Z,94771.23
2018-02-24T02:26:19.734Z,94804.63
2018-02-24T02:27:58.631Z,94796.09
2018-02-24T02:29:37.674Z,94730.80
2018-02-24T02:31:16.333Z,94675.65
2018-02-24T02:32:55.369Z,94647.04
2018-02-24T02:34:33.342Z,94624.58
2018-02-24T02:36:11.827Z,94697.92
2018-02-24T02:37:50.061Z,94695.23
2018-02-24T02:39:28.308Z,94670.06
2018-02-24T02:41:07.544Z,94709.78
2018-02-24T02:42:46.042Z,94595.84
2018-02-24T02:44:24.235Z,94546.83
2018-02-24T02:46:03.296Z,94478.12
2018-02-24T02:47:42.134Z,94389.56
2018-02-24T02:49:20.339Z,94437.67
2018-02-24T02:50:59.520Z,94476.06
2018-02-24T02:52:37.713Z,94492.69
2018-02-24T02:54:16.757Z,94506.32
2018-02-24T02:55:54.498Z,94598.45
2018-02-24T02:57:32.990Z,94558.67
2018-02-24T02:59:10.850Z,94565.09
2018-02-24T03:00:49.431Z,94517.32
2018-02-24T03:02:27.703Z,94532.73
2018-02-24T03:04:06.546Z,94685.45
2018-02-24T03:05:44.424Z,94569.72
2018-02-24T03:07:29.514Z,94409.85
2018-02-24T03:09:07.877Z,94405.16
2018-02-24T03:10:46.560Z,94418.45
2018-02-24T03:12:24.763Z,94370.26
2018-02-24T03:14:03.952Z,94369.05
2018-02-24T03:15:42.145Z,94467.47
2018-02-24T03:17:20.184Z,94402.64
2018-02-24T03:18:58.321Z,94437.55
2018-02-24T03:20:37.862Z,94386.83
2018-02-24T03:22:16.006Z,94475.05
2018-02-24T03:23:54.682Z,94543.30
2018-02-24T03:25:32.964Z,94580.34
2018-02-24T03:27:11.834Z,94508.34
2018-02-24T03:28:49.129Z,94435.86
2018-02-24T03:30:27.711Z,94459.70
2018-02-24T03:32:07.608Z,94442.66
2018-02-24T03:33:46.844Z,94294.80
2018-02-24T03:35:24.643Z,94093.65
2018-02-24T03:37:02.390Z,94178.41
2018-02-24T03:38:41.049Z,94310.19
2018-02-24T03:40:18.995Z,94406.50
2018-02-24T03:41:57.173Z,94434.65
2018-02-24T03:43:35.424Z,94335.66
2018-02-24T03:45:15.286Z,94363.47
2018-02-24T03:46:53.972Z,94338.69
2018-02-24T03:48:31.742Z,94222.55
2018-02-24T03:50:09.909Z,94130.24
2018-02-24T03:51:48.143Z,94191.05
2018-02-24T03:53:26.025Z,94271.36
2018-02-24T03:55:03.818Z,94355.75
2018-02-24T03:56:41.711Z,94288.42
2018-02-24T03:58:19.648Z,94277.36
2018-02-24T03:59:57.618Z,94186.73
2018-02-24T04:01:35.760Z,94246.86
2018-02-24T04:03:13.482Z,94177.02
2018-02-24T04:04:52.916Z,94230.64
2018-02-24T04:06:31.316Z,94317.39
2018-02-24T04:08:09.193Z,94224.61
2018-02-24T04:09:47.314Z,94174.56
2018-02-24T04:11:25.893Z,94119.52
2018-02-24T04:13:04.239Z,94219.11
2018-02-24T04:14:41.980Z,94379.95
2018-02-24T04:16:19.841Z,94342.03
2018-02-24T04:17:57.287Z,94341.33
2018-02-24T04:19:35.861Z,94480.97
2018-02-24T04:21:13.708Z,94560.30
2018-02-24T04:22:54.477Z,94486.55
2018-02-24T04:24:32.831Z,94470.81
2018-02-24T04:26:11.191Z,94456.29
2018-02-24T04:27:48.979Z,94392.33
2018-02-24T04:29:27.056Z,94372.02
2018-02-24T04:31:04.836Z,94499.34
2018-02-24T04:32:42.937Z,94532.09
2018-02-24T04:34:21.270Z,94634.10
2018-02-24T04:35:59.239Z,94676.33
2018-02-24T04:39:19.712Z,94560.34
2018-02-24T04:40:57.496Z,94667.45
2018-02-24T04:42:34.950Z,94685.36
2018-02-24T04:44:12.277Z,94687.45
2018-02-24T04:45:50.297Z,94634.10
2018-02-24T04:47:28.082Z,94700.70
2018-02-24T04:49:05.367Z,94856.19
2018-02-24T04:50:42.841Z,94864.66
2018-02-24T04:52:20.276Z,94889.48
2018-02-24T04:53:58.358Z,94890.36
2018-02-24T04:55:36.154Z,94948.05
2018-02-24T04:57:14.014Z,94883.84
2018-02-24T04:58:51.704Z,94869.73
2018-02-24T05:00:29.581Z,94771.06
2018-02-24T05:02:07.695Z,94650.28
2018-02-24T05:03:45.485Z,94636.28
2018-02-24T05:05:24.110Z,94555.69
2018-02-24T05:07:01.822Z,94565.86
2018-02-24T05:08:39.646Z,94508.63
2018-02-24T05:10:17.494Z,94614.95
2018-02-24T05:11:55.776Z,94521.85
2018-02-24T05:13:33.757Z,94499.39
2018-02-24T05:15:14.302Z,94635.03
2018-02-24T05:16:52.486Z,94655.86
2018-02-24T05:18:29.961Z,94462.63
2018-02-24T05:20:07.582Z,94378.31
2018-02-24T05:21:46.189Z,94391.02
2018-02-24T05:23:25.297Z,94436.33
2018-02-24T05:25:03.522Z,94440.06
2018-02-24T05:26:42.283Z,94414.05
2018-02-24T05:28:20.281Z,94480.97
2018-02-24T05:30:01.657Z,94563.33
2018-02-24T05:31:40.649Z,94603.02
2018-02-24T05:33:18.002Z,94512.95
2018-02-24T05:34:55.610Z,94460.59
2018-02-24T05:36:34.047Z,94499.73
2018-02-24T05:38:12.269Z,94359.20
2018-02-24T05:39:50.918Z,94365.61
2018-02-24T05:41:28.344Z,94205.92
2018-02-24T05:43:06.270Z,94196.48
2018-02-24T05:44:44.500Z,94210.06
2018-02-24T05:46:23.759Z,94144.19
2018-02-24T05:48:02.460Z,94160.77
2018-02-24T05:49:40.664Z,94181.70
2018-02-24T05:51:19.029Z,94226.74
2018-02-24T05:52:57.513Z,94197.41
2018-02-24T05:54:36.602Z,94270.99
2018-02-24T05:56:15.304Z,94308.00
2018-02-24T05:57:53.336Z,94323.21
2018-02-24T05:59:31.898Z,94291.77
2018-02-24T06:01:15.499Z,94285.45
2018-02-24T06:02:54.758Z,94467.37
2018-02-24T06:04:33.587Z,94465.56
2018-02-24T06:06:12.301Z,94474.63
2018-02-24T06:07:49.946Z,94509.46
2018-02-24T06:09:28.211Z,94509.55
2018-02-24T06:11:06.403Z,94350.97
2018-02-24T06:12:45.374Z,94390.22
2018-02-24T06:14:23.881Z,94326.77
2018-02-24T06:16:02.177Z,94346.77
2018-02-24T06:17:39.910Z,94321.20
2018-02-24T06:19:18.556Z,94274.71
2018-02-24T06:20:56.657Z,94303.27
2018-02-24T06:22:36.471Z,94342.08
2018-02-24T06:24:14.717Z,94309.67
2018-02-24T06:25:53.906Z,94301.58
2018-02-24T06:27:32.216Z,94325.35
2018-02-24T06:29:10.335Z,94322.92
2018-02-24T06:30:49.313Z,94374.00
2018-02-24T06:32:29.293Z,94408.92
2018-02-24T06:34:07.958Z,94326.61
2018-02-24T06:35:46.655Z,94315.16
2018-02-24T06:37:25.811Z,94308.42
2018-02-24T06:39:04.717Z,94369.72
2018-02-24T06:40:43.779Z,94366.23
2018-02-24T06:43:59.533Z,94477.48
2018-02-24T06:45:38.982Z,94535.48
2018-02-24T06:47:19.636Z,94617.38
2018-02-24T06:48:58.227Z,94716.84
2018-02-24T06:50:37.758Z,94621.66
2018-02-24T06:52:16.816Z,94585.38
2018-02-24T06:53:55.478Z,94599.57
2018-02-24T06:55:33.996Z,94667.29
2018-02-24T06:57:12.892Z,94649.68
2018-02-24T06:58:51.516Z,94685.23
2018-02-24T07:00:40.522Z,94767.57
2018-02-24T07:02:19.046Z,94783.34
2018-02-24T07:03:57.488Z,94802.69
2018-02-24T07:05:36.512Z,94753.91
2018-02-24T07:07:15.779Z,94726.20
2018-02-24T07:08:59.117Z,94732.26
2018-02-24T07:10:37.139Z,94779.98
2018-02-24T07:12:15.527Z,94799.20
2018-02-24T07:13:58.319Z,94788.52
2018-02-24T07:15:37.051Z,94721.55
2018-02-24T07:17:15.667Z,94643.00
2018-02-24T07:18:54.044Z,94648.05
2018-02-24T07:20:32.709Z,94695.06
2018-02-24T07:22:20.370Z,94712.09
2018-02-24T07:23:59.660Z,94668.97
2018-02-24T07:25:39.033Z,94701.83
2018-02-24T07:27:17.119Z,94730.88
2018-02-24T07:28:55.672Z,94704.85
2018-02-24T07:30:33.996Z,94692.42
2018-02-24T07:32:12.672Z,94663.09
2018-02-24T07:33:50.868Z,94714.19
2018-02-24T07:35:30.927Z,94726.55
2018-02-24T07:37:09.738Z,94748.82
2018-02-24T07:38:48.671Z,94806.98
2018-02-24T07:40:26.808Z,94832.97
2018-02-24T07:42:05.005Z,94872.68
2018-02-24T07:43:44.347Z,94914.59
2018-02-24T07:45:23.058Z,94941.11
2018-02-24T07:47:01.285Z,94921.45
2018-02-24T07:48:40.054Z,94859.55
2018-02-24T07:50:18.155Z,94929.62
2018-02-24T07:51:56.455Z,94996.18
2018-02-24T07:53:34.818Z,94976.59
2018-02-24T07:55:12.860Z,94988.44
2018-02-24T07:56:50.806Z,95078.86
2018-02-24T07:58:29.368Z,94971.72
2018-02-24T08:00:09.848Z,94909.04
2018-02-24T08:01:48.077Z,94949.23
2018-02-24T08:03:26.269Z,94889.43
2018-02-24T08:05:04.414Z,94876.59
2018-02-24T08:06:43.160Z,94888.97
2018-02-24T08:08:21.366Z,94854.00
2018-02-24T08:10:00.127Z,94829.48
2018-02-24T08:11:38.556Z,94881.69
2018-02-24T08:13:16.550Z,94902.19
2018-02-24T08:14:56.819Z,94862.80
2018-02-24T08:16:35.422Z,94852.66
2018-02-24T08:18:15.205Z,94963.75
2018-02-24T08:19:54.279Z,95018.88
2018-02-24T08:21:32.613Z,94988.05
2018-02-24T08:23:11.296Z,94973.52
2018-02-24T08:24:50.753Z,94905.63
2018-02-24T08:26:29.280Z,94982.88
2018-02-24T08:28:07.104Z,95022.75
2018-02-24T08:29:45.549Z,95112.19
2018-02-24T08:31:24.829Z,95161.00
2018-02-24T08:33:03.165Z,95145.14
2018-02-24T08:34:41.490Z,95100.59
2018-02-24T08:36:20.754Z,95178.49
2018-02-24T08:37:58.604Z,95151.59
2018-02-24T08:39:37.369Z,95152.02
2018-02-24T08:41:15.404Z,95146.41
2018-02-24T08:42:53.196Z,95030.42
2018-02-24T08:44:31.049Z,95069.77
2018-02-24T08:46:09.383Z,95078.31
2018-02-24T08:47:48.270Z,95079.62
2018-02-24T08:49:29.122Z,95086.14
2018-02-24T08:51:07.302Z,95092.47
2018-02-24T08:52:45.618Z,95049.20
2018-02-24T08:54:23.490Z,95079.58
2018-02-24T08:56:01.678Z,95173.80
2018-02-24T08:57:51.478Z,95190.88
2018-02-24T08:59:30.517Z,95164.83
2018-02-24T09:01:10.722Z,95181.48
2018-02-24T09:02:49.582Z,95122.34
2018-02-24T09:04:27.544Z,95148.94
2018-02-24T09:06:06.355Z,95166.52
2018-02-24T09:07:44.138Z,95160.95
2018-02-24T09:09:22.488Z,95179.72
2018-02-24T09:11:00.593Z,95181.86
2018-02-24T09:12:38.254Z,95181.48
2018-02-24T09:14:17.416Z,95195.53
2018-02-24T09:15:55.890Z,95233.30
2018-02-24T09:17:34.253Z,95235.88
2018-02-24T09:19:12.114Z,95244.82
2018-02-24T09:20:50.106Z,95290.75
2018-02-24T09:22:28.414Z,95293.70
2018-02-24T09:24:07.447Z,95341.72
2018-02-24T09:25:45.396Z,95345.91
2018-02-24T09:27:23.166Z,95328.81
2018-02-24T09:29:01.500Z,95374.31
2018-02-24T09:30:40.509Z,95391.06
2018-02-24T09:32:18.902Z,95447.61
2018-02-24T09:33:57.237Z,95400.52
2018-02-24T09:35:35.874Z,95396.64
2018-02-24T09:37:14.623Z,95386.30
2018-02-24T09:38:53.555Z,95415.89
2018-02-24T09:40:32.701Z,95443.34
2018-02-24T09:42:10.669Z,95506.44
2018-02-24T09:43:48.561Z,95497.86
2018-02-24T09:45:28.024Z,95532.22
2018-02-24T09:47:05.975Z,95542.87
2018-02-24T09:48:44.558Z,95590.16
2018-02-24T09:52:31.930Z,95733.17
2018-02-24T09:54:09.733Z,95758.14
2018-02-24T09:55:48.816Z,95771.01
2018-02-24T09:57:27.188Z,95834.63
2018-02-24T09:59:05.688Z,95804.95
2018-02-24T10:00:43.979Z,95791.63
2018-02-24T10:02:21.631Z,95753.78
2018-02-24T10:04:00.378Z,95863.58
2018-02-24T10:05:38.663Z,95853.59
2018-02-24T10:07:16.563Z,95819.59
2018-02-24T10:08:54.888Z,95820.48
2018-02-24T10:10:35.479Z,95892.80
2018-02-24T10:12:15.899Z,95926.80
2018-02-24T10:13:54.549Z,95953.49
2018-02-24T10:15:33.884Z,95936.61
2018-02-24T10:17:11.592Z,95811.47
2018-02-24T10:18:50.903Z,95731.10
2018-02-24T10:20:28.812Z,95718.59
2018-02-24T10:22:06.610Z,95750.02
2018-02-24T10:23:45.207Z,95849.39
2018-02-24T10:25:24.262Z,95902.66
2018-02-24T10:27:02.287Z,95908.22
2018-02-24T10:28:40.883Z,95961.24
2018-02-24T10:30:18.922Z,95915.66
2018-02-24T10:31:57.159Z,95899.23
2018-02-24T10:33:36.434Z,95922.91
2018-02-24T10:35:14.267Z,95939.30
2018-02-24T10:36:53.009Z,95922.45
2018-02-24T10:38:31.131Z,95924.64
2018-02-24T10:40:09.612Z,95962.87
2018-02-24T10:41:47.479Z,95921.14
2018-02-24T10:43:25.704Z,95921.98
2018-02-24T10:45:05.334Z,95866.11
2018-02-24T10:46:44.258Z,95962.41
2018-02-24T10:48:21.935Z,95949.13
2018-02-24T10:50:00.056Z,95878.11
2018-02-24T10:51:38.313Z,95903.17
2018-02-24T10:53:17.051Z,95938.87
2018-02-24T10:54:55.638Z,95930.66
2018-02-24T10:56:33.706Z,95951.30
2018-02-24T10:58:12.448Z,96023.63
2018-02-24T10:59:50.182Z,95989.22
2018-02-24T11:01:29.665Z,95970.27
2018-02-24T11:03:07.290Z,96020.58
2018-02-24T11:04:45.781Z,96057.28
2018-02-24T11:06:23.511Z,96083.95
2018-02-24T11:08:01.111Z,96159.29
2018-02-24T11:09:39.118Z,96196.83
2018-02-24T11:11:17.151Z,96125.73
2018-02-24T11:12:54.903Z,96187.33
2018-02-24T11:14:33.497Z,96132.60
2018-02-24T11:16:12.485Z,96149.83
2018-02-24T11:17:51.386Z,96174.84
2018-02-24T11:19:29.210Z,96068.78
2018-02-24T11:21:07.040Z,96064.58
2018-02-24T11:22:45.429Z,96087.81
2018-02-24T11:24:24.268Z,96089.97
2018-02-24T11:26:02.683Z,96175.77
2018-02-24T11:27:40.379Z,96156.28
2018-02-24T11:29:18.578Z,96169.59
2018-02-24T11:30:58.010Z,96198.88
2018-02-24T11:32:36.230Z,96266.93
2018-02-24T11:34:13.964Z,96201.94
2018-02-24T11:35:53.528Z,96082.18
2018-02-24T11:37:32.137Z,96119.63
2018-02-24T11:39:09.939Z,96178.25
2018-02-24T11:40:49.721Z,96251.89
2018-02-24T11:42:27.694Z,96233.42
2018-02-24T11:44:05.848Z,96201.97
2018-02-24T11:45:44.606Z,96273.92
2018-02-24T11:47:22.560Z,96370.11
2018-02-24T11:49:00.419Z,96261.40
2018-02-24T11:50:38.432Z,96312.02
2018-02-24T11:52:16.293Z,96274.88
2018-02-24T11:53:54.133Z,96385.34
2018-02-24T11:55:32.011Z,96312.80
2018-02-24T11:57:10.377Z,96292.94
2018-02-24T11:58:48.950Z,96370.11
2018-02-24T12:00:27.518Z,96416.02
2018-02-24T12:02:05.699Z,96506.14
2018-02-24T12:03:43.952Z,96425.81
2018-02-24T12:05:21.777Z,96448.71
2018-02-24T12:06:59.460Z,96419.81
2018-02-24T12:08:37.692Z,96440.08
2018-02-24T12:10:15.656Z,96524.75
2018-02-24T12:11:53.544Z,96465.19
2018-02-24T12:13:31.376Z,96447.36
2018-02-24T12:15:09.527Z,96374.13
2018-02-24T12:16:48.944Z,96424.45
2018-02-24T12:18:27.429Z,96367.55
2018-02-24T12:20:05.116Z,96496.66
2018-02-24T12:21:43.993Z,96526.00
2018-02-24T12:23:22.771Z,96569.17
2018-02-24T12:25:00.537Z,96500.20
2018-02-24T12:26:39.124Z,96541.59
2018-02-24T12:28:16.644Z,96468.64
2018-02-24T12:29:55.550Z,96441.04
2018-02-24T12:31:33.450Z,96524.75
2018-02-24T12:33:11.429Z,96461.64
2018-02-24T12:34:49.437Z,96387.01
2018-02-24T12:36:27.910Z,96363.30
2018-02-24T12:38:05.825Z,96435.78
2018-02-24T12:39:43.816Z,96474.67
2018-02-24T12:41:21.680Z,96531.19
2018-02-24T12:43:00.538Z,96641.36
2018-02-24T12:44:38.390Z,96616.77
2018-02-24T12:46:16.399Z,96515.23
2018-02-24T12:47:55.800Z,96539.39
2018-02-24T12:49:35.012Z,96602.90
2018-02-24T12:51:14.314Z,96694.17
2018-02-24T12:52:52.617Z,96675.56
2018-02-24T12:54:30.479Z,96548.03
2018-02-24T12:56:08.586Z,96422.83
2018-02-24T12:57:47.142Z,96404.58
2018-02-24T12:59:24.772Z,96462.06
2018-02-24T13:01:03.833Z,96523.02
2018-02-24T13:02:42.140Z,96669.52
2018-02-24T13:04:20.628Z,96658.18
2018-02-24T13:05:58.415Z,96567.08
2018-02-24T13:07:36.082Z,96547.17
2018-02-24T13:09:14.254Z,96519.95
2018-02-24T13:10:51.938Z,96539.89
2018-02-24T13:12:30.380Z,96615.38
2018-02-24T13:14:08.266Z,96530.72
2018-02-24T13:15:46.369Z,96514.38
2018-02-24T13:17:24.095Z,96563.63
2018-02-24T13:19:01.970Z,96533.81
2018-02-24T13:20:39.707Z,96529.05
2018-02-24T13:22:19.298Z,96548.09
2018-02-24T13:23:57.174Z,96670.37
2018-02-24T13:25:34.914Z,96697.98
2018-02-24T13:27:12.627Z,96702.77
2018-02-24T13:28:51.440Z,96599.80
2018-02-24T13:30:29.653Z,96513.45
2018-02-24T13:32:07.715Z,96578.23
2018-02-24T13:33:46.432Z,96553.25
2018-02-24T13:35:25.980Z,96521.73
2018-02-24T13:37:03.844Z,96450.91
2018-02-24T13:38:41.786Z,96480.25
2018-02-24T13:40:19.479Z,96485.40
2018-02-24T13:41:58.300Z,96501.34
2018-02-24T13:43:37.183Z,96469.45
2018-02-24T13:45:17.214Z,96593.41
2018-02-24T13:46:54.998Z,96498.36
2018-02-24T13:48:33.453Z,96430.56
2018-02-24T13:50:11.739Z,96428.40
2018-02-24T13:51:49.627Z,96538.97
2018-02-24T13:53:27.471Z,96569.56
2018-02-24T13:55:05.682Z,96524.69
2018-02-24T13:56:43.446Z,96579.58
2018-02-24T13:58:21.148Z,96502.23
2018-02-24T13:59:58.967Z,96556.23
2018-02-24T14:01:38.821Z,96543.34
2018-02-24T14:03:17.591Z,96493.64
2018-02-24T14:04:55.353Z,96407.23
2018-02-24T14:06:34.015Z,96309.75
2018-02-24T14:08:11.850Z,96465.16
2018-02-24T14:09:50.612Z,96504.41
2018-02-24T14:11:28.431Z,96455.25
2018-02-24T14:13:06.052Z,96346.44
2018-02-24T14:14:44.476Z,96278.25
2018-02-24T14:16:22.322Z,96289.95
2018-02-24T14:17:59.902Z,96327.49
2018-02-24T14:19:37.694Z,96326.53
2018-02-24T14:21:15.768Z,96378.81
2018-02-24T14:22:53.552Z,96424.49
2018-02-24T14:24:31.344Z,96399.47
2018-02-24T14:26:09.742Z,96441.29
2018-02-24T14:27:48.685Z,96522.16
2018-02-24T14:29:26.540Z,96507.88
2018-02-24T14:31:05.004Z,96377.03
2018-02-24T14:32:42.810Z,96315.78
2018-02-24T14:34:21.012Z,96261.89
2018-02-24T14:35:59.451Z,96359.82
2018-02-24T14:37:37.171Z,96328.27
2018-02-24T14:39:16.872Z,96301.52
2018-02-24T14:40:55.590Z,96298.50
2018-02-24T14:42:33.481Z,96356.30
2018-02-24T14:44:11.340Z,96348.08
2018-02-24T14:45:49.623Z,96248.45
2018-02-24T14:47:28.718Z,96279.88
2018-02-24T14:49:07.858Z,96276.05
2018-02-24T14:50:45.527Z,96157.09
2018-02-24T14:52:23.464Z,96220.83
2018-02-24T14:54:02.407Z,96264.41
2018-02-24T14:55:40.212Z,96299.78
2018-02-24T14:57:19.176Z,96217.86
2018-02-24T14:58:57.099Z,96204.06
2018-02-24T15:00:37.109Z,96191.62
2018-02-24T15:02:14.904Z,96161.84
2018-02-24T15:03:52.617Z,96194.56
2018-02-24T15:05:30.457Z,96209.70
2018-02-24T15:07:08.576Z,96319.65
2018-02-24T15:08:48.527Z,96323.52
2018-02-24T15:10:28.527Z,96258.34
2018-02-24T15:12:06.359Z,96215.72
2018-02-24T15:13:44.770Z,96200.16
2018-02-24T15:15:24.179Z,96150.60
2018-02-24T15:17:02.206Z,96131.68
2018-02-24T15:18:41.899Z,96120.55
2018-02-24T15:20:20.021Z,96167.90
2018-02-24T15:21:58.292Z,96230.83
2018-02-24T15:23:38.177Z,96207.03
2018-02-24T15:25:16.480Z,96159.25
2018-02-24T15:26:55.391Z,96112.76
2018-02-24T15:28:34.992Z,96094.65
2018-02-24T15:30:16.928Z,96027.41
2018-02-24T15:31:55.972Z,96023.63
2018-02-24T15:33:34.222Z,96130.33
2018-02-24T15:35:13.094Z,96070.02
2018-02-24T15:36:52.393Z,96027.80
2018-02-24T15:38:32.173Z,95994.30
2018-02-24T15:40:10.240Z,95990.84
2018-02-24T15:41:48.309Z,96014.06
2018-02-24T15:44:54.989Z,95924.06
2018-02-24T15:46:33.157Z,95936.14
2018-02-24T15:48:12.327Z,95920.17
2018-02-24T15:49:50.372Z,95970.63
2018-02-24T15:51:28.088Z,96010.59
2018-02-24T15:53:07.661Z,95937.49
2018-02-24T15:54:47.439Z,95879.00
2018-02-24T15:56:26.209Z,95888.90
2018-02-24T15:58:05.040Z,95860.53
2018-02-24T15:59:44.125Z,95821.64
2018-02-24T16:01:22.823Z,95820.02
2018-02-24T16:03:01.566Z,95788.61
2018-02-24T16:04:40.438Z,95766.23
2018-02-24T16:10:05.977Z,95861.84
2018-02-24T16:11:43.917Z,95758.98
2018-02-24T16:13:21.859Z,95742.19
2018-02-24T16:15:01.336Z,95749.47
2018-02-24T16:16:41.545Z,95702.09
2018-02-24T16:18:19.845Z,95646.84
2018-02-24T16:19:58.983Z,95662.28
2018-02-24T16:21:37.367Z,95703.06
2018-02-24T16:23:15.726Z,95644.19
2018-02-24T16:24:55.313Z,95615.36
2018-02-24T16:26:33.116Z,95625.26
2018-02-24T16:28:10.988Z,95673.41
2018-02-24T16:29:48.972Z,95729.59
2018-02-24T16:31:27.138Z,95678.03
2018-02-24T16:33:05.740Z,95626.64
2018-02-24T16:34:44.559Z,95625.26
2018-02-24T16:36:24.289Z,95643.73
2018-02-24T16:38:03.940Z,95673.84
2018-02-24T16:39:42.133Z,95774.02
2018-02-24T16:41:21.301Z,95748.13
2018-02-24T16:42:59.083Z,95709.06
2018-02-24T16:44:37.929Z,95737.06
2018-02-24T16:46:16.583Z,95810.92
2018-02-24T16:47:54.631Z,95770.55
2018-02-24T16:49:32.939Z,95668.60
2018-02-24T16:51:10.957Z,95624.02
2018-02-24T16:52:49.406Z,95677.27
2018-02-24T16:54:27.768Z,95697.02
2018-02-24T16:56:05.633Z,95666.98
2018-02-24T16:57:43.408Z,95720.23
2018-02-24T16:59:21.518Z,95682.00
2018-02-24T17:00:59.807Z,95716.81
2018-02-24T17:02:37.495Z,95606.36
2018-02-24T17:04:15.444Z,95596.00
2018-02-24T17:05:53.205Z,95554.52
2018-02-24T17:07:31.236Z,95521.87
2018-02-24T17:09:09.055Z,95505.98
2018-02-24T17:10:50.033Z,95497.79
2018-02-24T17:12:28.347Z,95494.75
2018-02-24T17:14:06.347Z,95490.52
2018-02-24T17:15:47.640Z,95550.09
2018-02-24T17:17:26.917Z,95488.83
2018-02-24T17:19:06.087Z,95473.83
2018-02-24T17:20:44.651Z,95451.95
2018-02-24T17:22:23.277Z,95417.97
2018-02-24T17:24:01.453Z,95426.66
2018-02-24T17:25:39.660Z,95348.48
2018-02-24T17:27:17.480Z,95314.67
2018-02-24T17:28:57.169Z,95315.91
2018-02-24T17:30:35.535Z,95353.21
2018-02-24T17:32:14.682Z,95365.20
2018-02-24T17:33:53.577Z,95390.95
2018-02-24T17:35:31.317Z,95496.91
2018-02-24T17:37:09.796Z,95629.48
2018-02-24T17:38:48.614Z,95465.98
2018-02-24T17:40:26.473Z,95401.67
2018-02-24T17:42:05.717Z,95376.42
2018-02-24T17:43:44.547Z,95369.50
2018-02-24T17:45:24.250Z,95325.31
2018-02-24T17:47:04.791Z,95316.36
2018-02-24T17:48:49.803Z,95352.83
2018-02-24T17:50:28.064Z,95378.07
2018-02-24T17:52:06.397Z,95424.46
2018-02-24T17:53:44.547Z,95432.11
2018-02-24T17:55:22.965Z,95415.02
2018-02-24T17:57:01.864Z,95370.77
2018-02-24T17:58:43.750Z,95353.55
2018-02-24T18:00:25.493Z,95402.94
2018-02-24T18:02:03.269Z,95426.58
2018-02-24T18:03:43.262Z,95438.95
2018-02-24T18:05:23.939Z,95387.91
2018-02-24T18:07:04.094Z,95381.95
2018-02-24T18:08:42.475Z,95335.19
2018-02-24T18:10:27.485Z,95359.20
2018-02-24T18:12:17.012Z,95357.47
2018-02-24T18:13:59.032Z,95357.85
2018-02-24T18:15:43.728Z,95372.88
2018-02-24T18:17:24.944Z,95359.97
2018-02-24T18:19:07.346Z,95387.88
2018-02-24T18:20:47.098Z,95387.48
2018-02-24T18:22:27.950Z,95465.17
2018-02-24T18:24:06.999Z,95483.59
2018-02-24T18:25:46.585Z,95448.41
2018-02-24T18:27:25.616Z,95402.97
2018-02-24T18:29:05.920Z,95391.29
2018-02-24T18:30:49.463Z,95380.18
2018-02-24T18:32:35.023Z,95450.91
2018-02-24T18:34:19.557Z,95332.16
2018-02-24T18:36:05.218Z,95285.83
2018-02-24T18:37:44.012Z,95248.58
2018-02-24T18:39:23.485Z,95279.84
2018-02-24T18:41:01.287Z,95285.02
2018-02-24T18:42:40.901Z,95284.64
2018-02-24T18:44:43.866Z,95290.25
2018-02-24T18:46:27.481Z,95269.66
2018-02-24T18:48:16.040Z,95397.75
2018-02-24T18:50:07.182Z,95376.34
2018-02-24T18:51:49.358Z,95393.44
2018-02-24T18:53:29.949Z,95409.27
2018-02-24T18:55:09.588Z,95402.40
2018-02-24T18:56:51.925Z,95380.11
2018-02-24T18:58:33.301Z,95275.91
2018-02-24T19:00:13.638Z,95285.02
2018-02-24T19:01:55.930Z,95273.88
2018-02-24T19:03:34.872Z,95234.03
2018-02-24T19:05:14.945Z,95175.25
2018-02-24T19:06:55.289Z,95250.65
2018-02-24T19:08:36.934Z,95239.55
2018-02-24T19:10:16.579Z,95212.91
2018-02-24T19:11:59.236Z,95236.09
2018-02-24T19:13:43.833Z,95256.63
2018-02-24T19:15:26.264Z,95255.38
2018-02-24T19:17:08.364Z,95183.47
2018-02-24T19:18:54.004Z,95142.78
2018-02-24T19:20:34.777Z,95164.59
2018-02-24T19:22:16.758Z,95177.39
2018-02-24T19:24:01.312Z,95087.45
2018-02-24T19:25:44.114Z,95069.97
2018-02-24T19:27:28.579Z,95116.28
2018-02-24T19:29:10.092Z,95143.59
2018-02-24T19:30:50.734Z,95169.30
2018-02-24T19:32:31.300Z,95176.55
2018-02-24T19:34:10.213Z,95139.25
2018-02-24T19:35:50.327Z,95140.98
2018-02-24T19:37:31.372Z,95123.06
2018-02-24T19:39:14.806Z,95112.36
2018-02-24T19:41:02.216Z,95075.99
2018-02-24T19:42:43.798Z,95052.91
2018-02-24T19:44:25.812Z,95070.05
2018-02-24T19:46:05.480Z,95008.39